Miley Memorial field
KBPI : now visible

Airfield :











YOU CAN JOIN US ON...

 
LOGIN :

Register | Disclaimer

   EN    FR    IT 

 









Legend :    VFR   Marginal VFR   IFR   Intensive IFR   Very Intensive IFR
Visi :
Ceiling :
>= 8 km
>= 3000ft
5 to 8 km
1000 to 3000 ft
1500m to 5 km
500 to 1000 ft
800 to 1500m
200 to 500 ft
< 800m
< 200 ft
Symbols :   Thunderstorms  Fog  Heavy snow  Heavy precipitations  Wind > 20 kt






- Airport Elevation : 6990 ft


KBPI - Miley Memorial field

CURRENT METAR :
  • 032053Z AUTO 25019G29KT 10SM CLR 28/M01 A3004 RMK AO2 PK WND 26036/1956 SLP061 T02831006 56009

EXPIRED METARs :
  • 031953Z AUTO 25018G33KT 10SM FEW110 28/M01 A3005 RMK AO2 PK WND 24033/1939 SLP069 T02781006
  • 031853Z AUTO 24018G32KT 10SM CLR 27/00 A3006 RMK AO2 PK WND 24035/1754 SLP075 T02720000

TAF KBPI
Valid from the 03 at 18:00 until the 04 at 18:00 UTC


031725Z 0318/0418 21014G22KT P6SM FEW100
FM032000 24020G30KT P6SM FEW100
FM040200 25010KT P6SM FEW100
FM040400 34009KT P6SM FEW100
FM040900 VRB05KT P6SM SCT150
KZLC FIR / North America



MET'MAP, your aeronautical weather chart ! - Copyright ORBIFLY December 2007 - Disclaimer

ORBIFLY MET'MAP TEAM :

Programming & Development : Alexandra Zaïnal
Original concept : Baudouin d'Aumeries
Technical & hardware support : Manuel Goepfert
Assistance : Marc-Olivier Méhu




SOURCES & CREDITS :

   NOAA       Earth
Advisory